createdAt,value
2023-04-16T00:03:46.604Z,8.30
2023-04-16T00:09:09.058Z,8.25
2023-04-16T00:14:31.195Z,8.23
2023-04-16T00:19:52.928Z,8.21
2023-04-16T00:25:15.354Z,8.19
2023-04-16T00:30:40.335Z,8.25
2023-04-16T00:36:02.322Z,8.28
2023-04-16T00:41:24.547Z,8.22
2023-04-16T00:46:47.102Z,8.20
2023-04-16T00:52:14.524Z,8.16
2023-04-16T00:57:36.346Z,8.13
2023-04-16T01:03:01.004Z,8.14
2023-04-16T01:08:23.226Z,8.13
2023-04-16T01:13:45.266Z,8.12
2023-04-16T01:19:07.409Z,8.13
2023-04-16T01:24:29.491Z,8.11
2023-04-16T01:29:54.160Z,8.08
2023-04-16T01:35:20.607Z,8.07
2023-04-16T01:40:44.036Z,8.09
2023-04-16T01:46:28.166Z,8.15
2023-04-16T01:51:49.963Z,8.18
2023-04-16T01:57:12.307Z,8.13
2023-04-16T02:02:35.235Z,8.09
2023-04-16T02:07:57.269Z,8.06
2023-04-16T02:13:20.802Z,8.03
2023-04-16T02:18:42.932Z,7.98
2023-04-16T02:24:06.380Z,7.94
2023-04-16T02:29:29.200Z,7.88
2023-04-16T02:34:57.352Z,7.82
2023-04-16T02:40:18.978Z,7.78
2023-04-16T02:45:41.038Z,7.77
2023-04-16T02:51:03.044Z,7.75
2023-04-16T02:56:24.865Z,7.75
2023-04-16T03:01:46.604Z,7.79
2023-04-16T03:07:09.438Z,7.79
2023-04-16T03:12:31.151Z,7.79
2023-04-16T03:17:53.556Z,7.81
2023-04-16T03:23:15.316Z,7.79
2023-04-16T03:28:37.343Z,7.79
2023-04-16T03:34:00.101Z,7.83
2023-04-16T03:39:21.717Z,7.68
2023-04-16T03:44:43.781Z,7.60
2023-04-16T03:50:07.068Z,7.70
2023-04-16T03:55:29.100Z,7.75
2023-04-16T04:00:55.057Z,7.73
2023-04-16T04:06:17.074Z,7.81
2023-04-16T04:11:40.550Z,7.86
2023-04-16T04:17:02.810Z,7.84
2023-04-16T04:22:27.780Z,7.85
2023-04-16T04:27:49.806Z,7.90
2023-04-16T04:33:14.786Z,7.96
2023-04-16T04:38:37.976Z,7.98
2023-04-16T04:43:59.721Z,8.01
2023-04-16T04:49:21.737Z,7.96
2023-04-16T04:54:44.021Z,7.79
2023-04-16T05:00:06.807Z,7.79
2023-04-16T05:05:35.856Z,7.80
2023-04-16T05:10:59.617Z,7.75
2023-04-16T05:16:21.451Z,7.76
2023-04-16T05:21:45.467Z,7.82
2023-04-16T05:27:08.599Z,7.88
2023-04-16T05:32:32.150Z,7.96
2023-04-16T05:37:53.834Z,8.03
2023-04-16T05:43:15.806Z,8.14
2023-04-16T05:48:38.020Z,8.32
2023-04-16T05:53:59.543Z,8.50
2023-04-16T05:59:22.801Z,8.63
2023-04-16T06:04:44.410Z,8.73
2023-04-16T06:10:06.557Z,8.89
2023-04-16T06:15:28.632Z,9.04
2023-04-16T06:20:52.979Z,9.31
2023-04-16T06:26:14.885Z,9.60
2023-04-16T06:31:37.051Z,9.94
2023-04-16T06:36:59.068Z,10.10
2023-04-16T06:42:23.022Z,10.32
2023-04-16T06:47:45.247Z,10.48
2023-04-16T06:53:07.377Z,10.64
2023-04-16T06:58:29.425Z,10.70
2023-04-16T07:03:51.456Z,10.90
2023-04-16T07:09:13.575Z,11.08
2023-04-16T07:14:35.783Z,11.21
2023-04-16T07:19:57.572Z,11.29
2023-04-16T07:25:19.621Z,11.37
2023-04-16T07:30:44.611Z,11.56
2023-04-16T07:36:07.254Z,11.75
2023-04-16T07:41:29.768Z,11.85
2023-04-16T07:46:51.510Z,11.96
2023-04-16T07:52:13.735Z,12.08
2023-04-16T07:57:36.161Z,12.26
2023-04-16T08:02:58.421Z,12.50
2023-04-16T08:08:20.736Z,12.69
2023-04-16T08:13:42.649Z,12.67
2023-04-16T08:19:04.496Z,12.53
2023-04-16T08:24:27.063Z,12.74
2023-04-16T08:29:49.265Z,12.89
2023-04-16T08:35:10.693Z,13.20
2023-04-16T08:40:32.912Z,13.57
2023-04-16T08:45:56.744Z,13.63
2023-04-16T08:51:20.192Z,13.65
2023-04-16T08:56:44.303Z,13.73
2023-04-16T09:02:07.204Z,13.75
2023-04-16T09:07:29.881Z,13.85
2023-04-16T09:12:52.309Z,13.84
2023-04-16T09:18:14.040Z,13.82
2023-04-16T09:23:37.620Z,13.80
2023-04-16T09:28:59.603Z,13.86
2023-04-16T09:34:21.639Z,13.73
2023-04-16T09:39:44.561Z,13.65
2023-04-16T09:45:09.754Z,13.65
2023-04-16T09:50:31.642Z,13.71
2023-04-16T09:55:57.669Z,13.85
2023-04-16T10:01:20.400Z,14.06
2023-04-16T10:06:42.640Z,14.28
2023-04-16T10:12:05.646Z,14.54
2023-04-16T10:17:30.180Z,14.83
2023-04-16T10:22:53.188Z,14.98
2023-04-16T10:28:16.219Z,15.05
2023-04-16T10:33:41.941Z,14.98
2023-04-16T10:39:04.049Z,14.99
2023-04-16T10:44:26.077Z,14.85
2023-04-16T10:49:51.301Z,14.91
2023-04-16T10:55:17.505Z,15.01
2023-04-16T11:00:51.256Z,15.38
2023-04-16T11:06:19.911Z,15.65
2023-04-16T11:11:41.500Z,16.03
2023-04-16T11:17:04.045Z,16.43
2023-04-16T11:22:26.071Z,16.73
2023-04-16T11:27:48.424Z,16.94
2023-04-16T11:33:11.874Z,16.70
2023-04-16T11:38:37.693Z,16.40
2023-04-16T11:43:59.434Z,16.27
2023-04-16T11:49:28.874Z,16.24
2023-04-16T11:54:51.197Z,16.01
2023-04-16T12:00:14.240Z,16.12
2023-04-16T12:05:38.954Z,16.33
2023-04-16T12:11:00.608Z,16.56
2023-04-16T12:16:26.470Z,16.76
2023-04-16T12:21:51.223Z,16.82
2023-04-16T12:27:13.106Z,16.74
2023-04-16T12:32:36.279Z,16.84
2023-04-16T12:37:58.283Z,16.88
2023-04-16T12:43:21.581Z,16.76
2023-04-16T12:48:43.836Z,16.77
2023-04-16T12:54:09.842Z,16.97
2023-04-16T12:59:31.711Z,17.15
2023-04-16T13:04:54.043Z,17.20
2023-04-16T13:10:16.878Z,17.40
2023-04-16T13:15:38.435Z,17.63
2023-04-16T13:21:00.235Z,17.46
2023-04-16T13:26:22.203Z,17.03
2023-04-16T13:31:43.824Z,16.71
2023-04-16T13:37:06.326Z,16.64
2023-04-16T13:42:28.569Z,16.61
2023-04-16T13:47:50.414Z,16.58
2023-04-16T13:53:12.318Z,16.47
2023-04-16T13:58:34.031Z,16.30
2023-04-16T14:03:56.121Z,15.98
2023-04-16T14:09:17.889Z,15.62
2023-04-16T14:14:39.950Z,15.39
2023-04-16T14:20:01.674Z,15.29
2023-04-16T14:25:23.883Z,15.17
2023-04-16T14:30:45.912Z,15.07
2023-04-16T14:36:10.255Z,14.97
2023-04-16T14:41:33.063Z,14.89
2023-04-16T14:46:55.529Z,14.83
2023-04-16T14:52:17.254Z,14.72
2023-04-16T14:57:39.216Z,14.64
2023-04-16T15:03:01.654Z,14.61
2023-04-16T15:08:24.132Z,14.62
2023-04-16T15:13:48.216Z,14.68
2023-04-16T15:19:10.185Z,14.69
2023-04-16T15:24:32.933Z,14.76
2023-04-16T15:29:54.462Z,14.88
2023-04-16T15:35:16.606Z,14.89
2023-04-16T15:40:38.830Z,14.96
2023-04-16T15:46:01.674Z,15.15
2023-04-16T15:51:23.406Z,15.22
2023-04-16T15:56:46.842Z,15.34
2023-04-16T16:02:08.495Z,15.39
2023-04-16T16:07:33.892Z,15.43
2023-04-16T16:12:57.363Z,15.48
2023-04-16T16:18:19.253Z,15.53
2023-04-16T16:23:41.189Z,15.46
2023-04-16T16:29:03.014Z,15.26
2023-04-16T16:34:25.024Z,15.18
2023-04-16T16:39:47.371Z,15.19
2023-04-16T16:45:09.814Z,15.23
2023-04-16T16:50:34.743Z,15.17
2023-04-16T16:55:56.475Z,15.09
2023-04-16T17:01:18.750Z,15.00
2023-04-16T17:06:43.382Z,14.97
2023-04-16T17:12:05.623Z,14.92
2023-04-16T17:17:28.669Z,14.89
2023-04-16T17:22:51.439Z,14.78
2023-04-16T17:28:13.082Z,14.58
2023-04-16T17:33:35.032Z,14.43
2023-04-16T17:38:56.557Z,14.32
2023-04-16T17:44:18.463Z,14.18
2023-04-16T17:49:40.500Z,14.07
2023-04-16T17:55:03.615Z,13.96
2023-04-16T18:00:25.471Z,13.85
2023-04-16T18:05:47.445Z,13.73
2023-04-16T18:11:09.439Z,13.62
2023-04-16T18:16:31.132Z,13.50
2023-04-16T18:21:52.866Z,13.39
2023-04-16T18:27:14.993Z,13.30
2023-04-16T18:32:46.821Z,13.20
2023-04-16T18:38:16.506Z,13.14
2023-04-16T18:43:38.515Z,13.08
2023-04-16T18:49:00.767Z,12.98
2023-04-16T18:54:23.219Z,12.87
2023-04-16T18:59:45.239Z,12.75
2023-04-16T19:05:09.703Z,12.65
2023-04-16T19:10:33.710Z,12.52
2023-04-16T19:15:59.976Z,12.38
2023-04-16T19:21:22.092Z,12.18
2023-04-16T19:26:44.342Z,12.04
2023-04-16T19:32:09.002Z,11.97
2023-04-16T19:37:31.186Z,11.90
2023-04-16T19:42:53.112Z,11.80
2023-04-16T19:48:15.690Z,11.73
2023-04-16T19:53:38.503Z,11.67
2023-04-16T19:59:03.333Z,11.58
2023-04-16T20:04:25.399Z,11.52
2023-04-16T20:09:47.270Z,11.45
2023-04-16T20:15:09.684Z,11.34
2023-04-16T20:20:40.262Z,11.22
2023-04-16T20:26:02.111Z,11.16
2023-04-16T20:31:24.303Z,11.01
2023-04-16T20:36:46.355Z,10.93
2023-04-16T20:42:11.387Z,10.86
2023-04-16T20:47:35.973Z,10.73
2023-04-16T20:52:57.961Z,10.61
2023-04-16T20:58:19.993Z,10.54
2023-04-16T21:03:42.374Z,10.51
2023-04-16T21:09:06.155Z,10.40
2023-04-16T21:14:27.988Z,10.27
2023-04-16T21:19:50.176Z,10.15
2023-04-16T21:25:12.047Z,10.09
2023-04-16T21:30:33.776Z,9.99
2023-04-16T21:35:56.330Z,9.90
2023-04-16T21:41:18.337Z,9.82
2023-04-16T21:46:41.321Z,9.75
2023-04-16T21:52:03.083Z,9.66
2023-04-16T21:57:25.533Z,9.59
2023-04-16T22:02:47.339Z,9.53
2023-04-16T22:08:23.459Z,9.52
2023-04-16T22:13:47.787Z,9.50
2023-04-16T22:19:09.835Z,9.45
2023-04-16T22:24:31.827Z,9.40
2023-04-16T22:29:56.485Z,9.35
2023-04-16T22:35:18.401Z,9.28
2023-04-16T22:40:40.511Z,9.24
2023-04-16T22:46:06.836Z,9.21
2023-04-16T22:51:29.519Z,9.15
2023-04-16T22:56:52.444Z,9.12
2023-04-16T23:02:14.132Z,9.07
2023-04-16T23:07:36.598Z,9.03
2023-04-16T23:12:58.178Z,9.00
2023-04-16T23:18:20.358Z,8.92
2023-04-16T23:23:42.286Z,8.85
2023-04-16T23:29:04.100Z,8.80
2023-04-16T23:34:27.255Z,8.75
2023-04-16T23:39:58.205Z,8.70
2023-04-16T23:45:20.501Z,8.64
2023-04-16T23:50:41.983Z,8.61
2023-04-16T23:56:04.137Z,8.56
